sensor_id;sensor_type;location;lat;lon;timestamp;pressure;altitude;pressure_sealevel;temperature;humidity
27685;BME280;46113;50.130;8.526;2022-07-24T04:17:18;100443.81;;;20.08;40.57
27685;BME280;46113;50.130;8.526;2022-07-24T04:19:45;100448.59;;;20.05;41.21
27685;BME280;46113;50.130;8.526;2022-07-24T04:22:11;100449.06;;;19.98;41.72
27685;BME280;46113;50.130;8.526;2022-07-24T04:24:39;100445.41;;;20.00;41.68
27685;BME280;46113;50.130;8.526;2022-07-24T04:27:05;100444.53;;;19.99;41.88
27685;BME280;46113;50.130;8.526;2022-07-24T04:29:32;100447.09;;;20.01;41.80
27685;BME280;46113;50.130;8.526;2022-07-24T04:31:58;100436.00;;;19.94;42.14
27685;BME280;46113;50.130;8.526;2022-07-24T04:34:53;100448.31;;;19.96;41.63
27685;BME280;46113;50.130;8.526;2022-07-24T04:37:19;100443.66;;;19.76;42.15
27685;BME280;46113;50.130;8.526;2022-07-24T04:39:46;100441.38;;;19.82;41.77
27685;BME280;46113;50.130;8.526;2022-07-24T04:42:13;100443.28;;;19.80;41.95
27685;BME280;46113;50.130;8.526;2022-07-24T04:44:40;100447.13;;;19.89;41.67
27685;BME280;46113;50.130;8.526;2022-07-24T04:47:07;100442.69;;;19.88;41.87
27685;BME280;46113;50.130;8.526;2022-07-24T04:49:33;100440.75;;;19.90;41.63
27685;BME280;46113;50.130;8.526;2022-07-24T04:52:00;100441.97;;;19.97;41.16
27685;BME280;46113;50.130;8.526;2022-07-24T04:54:26;100440.38;;;19.95;41.71
27685;BME280;46113;50.130;8.526;2022-07-24T04:56:53;100438.44;;;19.97;41.82
27685;BME280;46113;50.130;8.526;2022-07-24T04:59:19;100437.59;;;19.85;41.88
27685;BME280;46113;50.130;8.526;2022-07-24T05:01:46;100447.84;;;19.91;41.45
27685;BME280;46113;50.130;8.526;2022-07-24T05:04:14;100448.06;;;19.88;41.87
27685;BME280;46113;50.130;8.526;2022-07-24T05:06:40;100452.59;;;19.88;42.25
27685;BME280;46113;50.130;8.526;2022-07-24T05:09:07;100450.53;;;19.91;41.79
27685;BME280;46113;50.130;8.526;2022-07-24T05:11:34;100447.94;;;19.90;42.10
27685;BME280;46113;50.130;8.526;2022-07-24T05:14:00;100452.00;;;19.84;42.57
27685;BME280;46113;50.130;8.526;2022-07-24T05:16:27;100449.81;;;19.89;42.69
27685;BME280;46113;50.130;8.526;2022-07-24T05:18:55;100448.44;;;19.83;42.62
27685;BME280;46113;50.130;8.526;2022-07-24T05:21:21;100445.66;;;19.85;42.71
27685;BME280;46113;50.130;8.526;2022-07-24T05:23:51;100449.88;;;19.76;43.38
27685;BME280;46113;50.130;8.526;2022-07-24T05:26:18;100449.75;;;19.78;43.44
27685;BME280;46113;50.130;8.526;2022-07-24T05:28:48;100446.97;;;19.91;43.18
27685;BME280;46113;50.130;8.526;2022-07-24T05:31:15;100460.78;;;19.97;43.15
27685;BME280;46113;50.130;8.526;2022-07-24T05:33:41;100454.91;;;19.92;43.13
27685;BME280;46113;50.130;8.526;2022-07-24T05:36:08;100462.50;;;19.98;43.34
27685;BME280;46113;50.130;8.526;2022-07-24T05:38:35;100462.72;;;19.95;43.21
27685;BME280;46113;50.130;8.526;2022-07-24T05:41:02;100455.16;;;19.89;43.62
27685;BME280;46113;50.130;8.526;2022-07-24T05:43:28;100458.19;;;19.96;43.34
27685;BME280;46113;50.130;8.526;2022-07-24T05:45:57;100454.44;;;20.10;43.56
27685;BME280;46113;50.130;8.526;2022-07-24T05:48:23;100458.72;;;20.13;43.78
27685;BME280;46113;50.130;8.526;2022-07-24T05:50:50;100456.03;;;20.13;43.36
27685;BME280;46113;50.130;8.526;2022-07-24T05:53:17;100457.50;;;20.17;43.73
27685;BME280;46113;50.130;8.526;2022-07-24T05:55:43;100455.13;;;20.23;42.89
27685;BME280;46113;50.130;8.526;2022-07-24T05:58:10;100459.19;;;20.29;43.08
27685;BME280;46113;50.130;8.526;2022-07-24T06:00:36;100449.78;;;20.35;42.62
27685;BME280;46113;50.130;8.526;2022-07-24T06:03:03;100456.34;;;20.42;42.95
27685;BME280;46113;50.130;8.526;2022-07-24T06:05:29;100463.47;;;20.55;43.08
27685;BME280;46113;50.130;8.526;2022-07-24T06:07:56;100458.56;;;20.60;42.84
27685;BME280;46113;50.130;8.526;2022-07-24T06:10:23;100454.88;;;20.61;42.46
27685;BME280;46113;50.130;8.526;2022-07-24T06:12:52;100459.63;;;20.69;42.59
27685;BME280;46113;50.130;8.526;2022-07-24T06:15:19;100459.25;;;20.73;42.07
27685;BME280;46113;50.130;8.526;2022-07-24T06:17:45;100459.59;;;20.80;42.11
27685;BME280;46113;50.130;8.526;2022-07-24T06:20:12;100459.72;;;20.78;42.51
27685;BME280;46113;50.130;8.526;2022-07-24T06:22:43;100469.00;;;20.86;41.84
27685;BME280;46113;50.130;8.526;2022-07-24T06:25:15;100469.13;;;20.84;41.89
27685;BME280;46113;50.130;8.526;2022-07-24T06:27:46;100466.03;;;20.89;41.92
27685;BME280;46113;50.130;8.526;2022-07-24T06:30:14;100462.50;;;20.88;41.47
27685;BME280;46113;50.130;8.526;2022-07-24T06:32:41;100456.22;;;20.99;41.17
27685;BME280;46113;50.130;8.526;2022-07-24T06:35:08;100450.47;;;21.04;41.47
27685;BME280;46113;50.130;8.526;2022-07-24T06:37:34;100451.06;;;21.08;40.89
27685;BME280;46113;50.130;8.526;2022-07-24T06:40:01;100445.22;;;21.02;41.74
27685;BME280;46113;50.130;8.526;2022-07-24T06:42:28;100450.16;;;21.19;41.02
27685;BME280;46113;50.130;8.526;2022-07-24T06:44:54;100447.66;;;21.06;40.58
27685;BME280;46113;50.130;8.526;2022-07-24T06:47:21;100441.47;;;21.15;40.59
27685;BME280;46113;50.130;8.526;2022-07-24T06:49:48;100448.56;;;21.27;39.71
27685;BME280;46113;50.130;8.526;2022-07-24T06:52:21;100444.31;;;21.13;39.21
27685;BME280;46113;50.130;8.526;2022-07-24T06:54:48;100441.47;;;21.15;38.90
27685;BME280;46113;50.130;8.526;2022-07-24T06:57:15;100433.75;;;21.22;38.72
27685;BME280;46113;50.130;8.526;2022-07-24T06:59:42;100438.97;;;21.35;38.92
27685;BME280;46113;50.130;8.526;2022-07-24T07:02:09;100443.56;;;21.44;38.69
27685;BME280;46113;50.130;8.526;2022-07-24T07:04:36;100444.34;;;21.35;39.13
27685;BME280;46113;50.130;8.526;2022-07-24T07:07:03;100441.84;;;21.43;39.40
27685;BME280;46113;50.130;8.526;2022-07-24T07:09:30;100434.19;;;21.38;38.89
27685;BME280;46113;50.130;8.526;2022-07-24T07:11:56;100442.72;;;21.43;38.91
27685;BME280;46113;50.130;8.526;2022-07-24T07:14:23;100440.31;;;21.50;39.10
27685;BME280;46113;50.130;8.526;2022-07-24T07:16:49;100433.66;;;21.45;39.14
27685;BME280;46113;50.130;8.526;2022-07-24T07:19:16;100434.00;;;21.82;38.87
27685;BME280;46113;50.130;8.526;2022-07-24T07:21:42;100438.47;;;21.93;38.92
27685;BME280;46113;50.130;8.526;2022-07-24T07:24:09;100440.41;;;21.91;38.66
27685;BME280;46113;50.130;8.526;2022-07-24T07:26:35;100432.31;;;22.13;38.59
27685;BME280;46113;50.130;8.526;2022-07-24T07:29:02;100440.41;;;22.13;38.28
27685;BME280;46113;50.130;8.526;2022-07-24T07:31:29;100443.16;;;22.32;38.08
27685;BME280;46113;50.130;8.526;2022-07-24T07:33:56;100437.59;;;22.34;37.71
27685;BME280;46113;50.130;8.526;2022-07-24T07:36:25;100446.09;;;22.29;36.86
27685;BME280;46113;50.130;8.526;2022-07-24T07:38:52;100445.16;;;22.50;36.71
27685;BME280;46113;50.130;8.526;2022-07-24T07:41:18;100445.03;;;22.52;36.74
27685;BME280;46113;50.130;8.526;2022-07-24T07:43:46;100440.69;;;22.70;36.53
27685;BME280;46113;50.130;8.526;2022-07-24T07:46:16;100436.31;;;22.79;36.39
27685;BME280;46113;50.130;8.526;2022-07-24T07:48:43;100436.88;;;22.83;36.72
27685;BME280;46113;50.130;8.526;2022-07-24T07:51:10;100442.13;;;22.94;36.46
27685;BME280;46113;50.130;8.526;2022-07-24T07:53:37;100444.94;;;23.12;36.02
27685;BME280;46113;50.130;8.526;2022-07-24T07:56:03;100441.28;;;23.13;36.20
27685;BME280;46113;50.130;8.526;2022-07-24T07:58:31;100444.25;;;23.30;35.97
27685;BME280;46113;50.130;8.526;2022-07-24T08:00:58;100452.34;;;23.40;35.69
27685;BME280;46113;50.130;8.526;2022-07-24T08:03:24;100444.38;;;23.48;35.55
27685;BME280;46113;50.130;8.526;2022-07-24T08:05:51;100448.34;;;23.54;35.38
27685;BME280;46113;50.130;8.526;2022-07-24T08:08:24;100446.03;;;23.69;35.02
27685;BME280;46113;50.130;8.526;2022-07-24T08:10:52;100452.09;;;23.81;35.13
27685;BME280;46113;50.130;8.526;2022-07-24T08:13:18;100444.53;;;23.85;35.28
27685;BME280;46113;50.130;8.526;2022-07-24T08:15:45;100441.84;;;23.95;34.59
27685;BME280;46113;50.130;8.526;2022-07-24T08:18:12;100441.84;;;23.95;34.43
27685;BME280;46113;50.130;8.526;2022-07-24T08:20:39;100442.25;;;24.00;35.14
27685;BME280;46113;50.130;8.526;2022-07-24T08:23:05;100437.06;;;24.16;34.71
27685;BME280;46113;50.130;8.526;2022-07-24T08:25:32;100440.41;;;24.28;34.59
27685;BME280;46113;50.130;8.526;2022-07-24T08:27:58;100442.94;;;24.02;34.72
27685;BME280;46113;50.130;8.526;2022-07-24T08:30:25;100440.28;;;23.82;35.41
27685;BME280;46113;50.130;8.526;2022-07-24T08:32:53;100438.75;;;23.89;34.72
27685;BME280;46113;50.130;8.526;2022-07-24T08:35:20;100442.19;;;24.38;34.36
27685;BME280;46113;50.130;8.526;2022-07-24T08:37:46;100437.34;;;24.41;33.43
27685;BME280;46113;50.130;8.526;2022-07-24T08:40:14;100432.28;;;24.28;34.53
27685;BME280;46113;50.130;8.526;2022-07-24T08:42:41;100427.13;;;24.35;34.96
27685;BME280;46113;50.130;8.526;2022-07-24T08:45:08;100430.59;;;24.55;33.89
27685;BME280;46113;50.130;8.526;2022-07-24T08:47:36;100424.78;;;24.68;34.50
27685;BME280;46113;50.130;8.526;2022-07-24T08:50:05;100427.34;;;24.70;33.46
27685;BME280;46113;50.130;8.526;2022-07-24T08:52:33;100425.72;;;24.95;33.29
27685;BME280;46113;50.130;8.526;2022-07-24T08:55:09;100427.59;;;24.77;33.20
27685;BME280;46113;50.130;8.526;2022-07-24T08:57:36;100435.75;;;24.85;33.41
27685;BME280;46113;50.130;8.526;2022-07-24T09:00:03;100431.69;;;25.17;32.46
27685;BME280;46113;50.130;8.526;2022-07-24T09:02:29;100425.56;;;24.97;33.11
27685;BME280;46113;50.130;8.526;2022-07-24T09:05:00;100423.44;;;25.27;33.20
27685;BME280;46113;50.130;8.526;2022-07-24T09:07:29;100424.09;;;25.03;33.74
27685;BME280;46113;50.130;8.526;2022-07-24T09:10:03;100424.53;;;25.34;33.75
27685;BME280;46113;50.130;8.526;2022-07-24T09:12:35;100418.78;;;25.64;32.72
27685;BME280;46113;50.130;8.526;2022-07-24T09:15:10;100416.19;;;25.81;32.13
27685;BME280;46113;50.130;8.526;2022-07-24T09:17:56;100410.03;;;26.05;31.46
27685;BME280;46113;50.130;8.526;2022-07-24T09:20:25;100407.81;;;26.00;31.21
27685;BME280;46113;50.130;8.526;2022-07-24T09:22:57;100409.22;;;26.21;30.55
27685;BME280;46113;50.130;8.526;2022-07-24T09:25:33;100414.22;;;26.34;30.04
27685;BME280;46113;50.130;8.526;2022-07-24T09:28:02;100416.44;;;26.39;29.28
27685;BME280;46113;50.130;8.526;2022-07-24T09:30:34;100409.88;;;26.58;29.26
27685;BME280;46113;50.130;8.526;2022-07-24T09:33:07;100401.25;;;26.63;28.92
27685;BME280;46113;50.130;8.526;2022-07-24T09:35:36;100406.50;;;26.81;29.19
27685;BME280;46113;50.130;8.526;2022-07-24T09:38:08;100407.34;;;26.81;29.49
27685;BME280;46113;50.130;8.526;2022-07-24T09:40:38;100402.31;;;27.03;29.00
27685;BME280;46113;50.130;8.526;2022-07-24T09:43:34;100402.44;;;27.18;28.83
27685;BME280;46113;50.130;8.526;2022-07-24T09:46:07;100399.22;;;26.73;28.71
27685;BME280;46113;50.130;8.526;2022-07-24T09:48:52;100399.41;;;26.88;28.55
27685;BME280;46113;50.130;8.526;2022-07-24T09:51:26;100400.38;;;26.02;28.10
27685;BME280;46113;50.130;8.526;2022-07-24T09:53:58;100397.88;;;27.19;28.10
27685;BME280;46113;50.130;8.526;2022-07-24T09:56:25;100397.50;;;27.47;28.10
27685;BME280;46113;50.130;8.526;2022-07-24T09:58:57;100394.91;;;27.62;27.49
27685;BME280;46113;50.130;8.526;2022-07-24T10:01:27;100399.03;;;27.41;27.46
27685;BME280;46113;50.130;8.526;2022-07-24T10:03:55;100391.56;;;27.92;27.20
27685;BME280;46113;50.130;8.526;2022-07-24T10:06:25;100392.38;;;27.52;27.66
27685;BME280;46113;50.130;8.526;2022-07-24T10:08:54;100384.56;;;28.06;27.53
27685;BME280;46113;50.130;8.526;2022-07-24T10:11:21;100383.16;;;28.41;27.76
27685;BME280;46113;50.130;8.526;2022-07-24T10:13:49;100381.78;;;28.46;27.20
27685;BME280;46113;50.130;8.526;2022-07-24T10:16:30;100383.38;;;28.63;27.17
27685;BME280;46113;50.130;8.526;2022-07-24T10:19:02;100387.06;;;28.94;27.38
27685;BME280;46113;50.130;8.526;2022-07-24T10:21:33;100379.47;;;29.04;26.46
27685;BME280;46113;50.130;8.526;2022-07-24T10:26:47;100373.53;;;29.54;25.91
27685;BME280;46113;50.130;8.526;2022-07-24T10:29:21;100368.75;;;29.71;25.82
27685;BME280;46113;50.130;8.526;2022-07-24T10:31:53;100365.09;;;29.64;25.23
27685;BME280;46113;50.130;8.526;2022-07-24T10:34:42;100361.59;;;29.70;25.27
27685;BME280;46113;50.130;8.526;2022-07-24T10:37:26;100355.41;;;29.62;24.71
27685;BME280;46113;50.130;8.526;2022-07-24T10:45:40;100362.06;;;29.89;25.60
27685;BME280;46113;50.130;8.526;2022-07-24T10:51:12;100357.66;;;28.19;26.18
27685;BME280;46113;50.130;8.526;2022-07-24T10:53:46;100343.94;;;29.06;25.85
27685;BME280;46113;50.130;8.526;2022-07-24T10:56:28;100336.63;;;29.52;25.23
27685;BME280;46113;50.130;8.526;2022-07-24T10:58:59;100343.75;;;29.23;26.00
27685;BME280;46113;50.130;8.526;2022-07-24T11:04:03;100323.78;;;29.97;24.85
27685;BME280;46113;50.130;8.526;2022-07-24T11:09:10;100321.63;;;30.30;24.35
27685;BME280;46113;50.130;8.526;2022-07-24T11:17:42;100317.44;;;29.30;25.56
27685;BME280;46113;50.130;8.526;2022-07-24T11:20:17;100312.84;;;30.34;24.61
27685;BME280;46113;50.130;8.526;2022-07-24T11:22:55;100304.25;;;30.81;23.35
27685;BME280;46113;50.130;8.526;2022-07-24T11:25:25;100297.63;;;30.97;23.21
27685;BME280;46113;50.130;8.526;2022-07-24T11:28:11;100297.84;;;31.24;23.04
27685;BME280;46113;50.130;8.526;2022-07-24T11:30:43;100286.16;;;31.44;23.03
27685;BME280;46113;50.130;8.526;2022-07-24T11:33:11;100293.34;;;31.59;22.43
27685;BME280;46113;50.130;8.526;2022-07-24T11:35:38;100295.50;;;31.21;22.88
27685;BME280;46113;50.130;8.526;2022-07-24T11:38:06;100287.19;;;30.50;23.26
27685;BME280;46113;50.130;8.526;2022-07-24T11:40:35;100286.72;;;30.69;21.96
27685;BME280;46113;50.130;8.526;2022-07-24T11:43:06;100290.25;;;30.19;21.95
27685;BME280;46113;50.130;8.526;2022-07-24T11:45:38;100279.69;;;30.59;21.85
27685;BME280;46113;50.130;8.526;2022-07-24T11:48:05;100280.44;;;30.24;23.24
27685;BME280;46113;50.130;8.526;2022-07-24T11:50:32;100277.63;;;30.40;22.79
27685;BME280;46113;50.130;8.526;2022-07-24T11:53:05;100270.63;;;30.81;22.49
27685;BME280;46113;50.130;8.526;2022-07-24T11:55:31;100264.47;;;31.00;21.96
27685;BME280;46113;50.130;8.526;2022-07-24T11:57:58;100258.63;;;31.10;22.13
27685;BME280;46113;50.130;8.526;2022-07-24T12:00:45;100260.59;;;31.16;23.67
27685;BME280;46113;50.130;8.526;2022-07-24T12:03:11;100260.31;;;31.53;23.04
27685;BME280;46113;50.130;8.526;2022-07-24T12:05:38;100261.34;;;31.46;23.03
27685;BME280;46113;50.130;8.526;2022-07-24T12:08:21;100249.34;;;30.47;23.14
27685;BME280;46113;50.130;8.526;2022-07-24T12:10:57;100258.19;;;29.62;23.98
27685;BME280;46113;50.130;8.526;2022-07-24T12:13:24;100248.09;;;30.43;23.10
27685;BME280;46113;50.130;8.526;2022-07-24T12:15:51;100249.94;;;30.64;23.22
27685;BME280;46113;50.130;8.526;2022-07-24T12:18:18;100235.25;;;31.01;22.95
27685;BME280;46113;50.130;8.526;2022-07-24T12:20:58;100234.34;;;31.22;22.78
27685;BME280;46113;50.130;8.526;2022-07-24T12:23:25;100236.47;;;31.34;22.17
27685;BME280;46113;50.130;8.526;2022-07-24T12:25:52;100222.44;;;31.37;22.24
27685;BME280;46113;50.130;8.526;2022-07-24T12:28:19;100230.66;;;31.01;23.36
27685;BME280;46113;50.130;8.526;2022-07-24T12:30:47;100220.75;;;30.15;23.22
27685;BME280;46113;50.130;8.526;2022-07-24T12:36:05;100219.72;;;30.66;22.71
27685;BME280;46113;50.130;8.526;2022-07-24T12:38:59;100218.47;;;29.96;23.28
27685;BME280;46113;50.130;8.526;2022-07-24T12:41:27;100211.16;;;29.75;23.37
27685;BME280;46113;50.130;8.526;2022-07-24T12:43:59;100206.38;;;30.21;23.42
27685;BME280;46113;50.130;8.526;2022-07-24T12:49:10;100209.91;;;30.43;23.04
27685;BME280;46113;50.130;8.526;2022-07-24T12:51:51;100204.63;;;30.42;23.04
27685;BME280;46113;50.130;8.526;2022-07-24T12:54:20;100197.94;;;30.73;22.59
27685;BME280;46113;50.130;8.526;2022-07-24T12:56:48;100195.75;;;31.46;22.61
27685;BME280;46113;50.130;8.526;2022-07-24T12:59:34;100193.91;;;30.69;22.47
27685;BME280;46113;50.130;8.526;2022-07-24T13:02:17;100185.50;;;29.91;23.86
27685;BME280;46113;50.130;8.526;2022-07-24T13:04:50;100197.19;;;29.48;23.70
27685;BME280;46113;50.130;8.526;2022-07-24T13:07:20;100195.56;;;29.69;23.89
27685;BME280;46113;50.130;8.526;2022-07-24T13:09:48;100184.47;;;29.70;24.01
27685;BME280;46113;50.130;8.526;2022-07-24T13:12:14;100182.94;;;30.33;24.02
27685;BME280;46113;50.130;8.526;2022-07-24T13:14:42;100185.06;;;29.51;23.49
27685;BME280;46113;50.130;8.526;2022-07-24T13:17:11;100186.22;;;30.79;23.56
27685;BME280;46113;50.130;8.526;2022-07-24T13:19:49;100181.47;;;30.95;22.59
27685;BME280;46113;50.130;8.526;2022-07-24T13:22:17;100175.13;;;31.29;21.93
27685;BME280;46113;50.130;8.526;2022-07-24T13:24:43;100166.66;;;30.75;23.02
27685;BME280;46113;50.130;8.526;2022-07-24T13:27:11;100170.00;;;30.71;22.19
27685;BME280;46113;50.130;8.526;2022-07-24T13:29:43;100162.72;;;31.34;22.34
27685;BME280;46113;50.130;8.526;2022-07-24T13:32:10;100170.31;;;30.61;22.55
27685;BME280;46113;50.130;8.526;2022-07-24T13:34:36;100159.25;;;31.04;21.99
27685;BME280;46113;50.130;8.526;2022-07-24T13:37:04;100152.88;;;31.46;21.89
27685;BME280;46113;50.130;8.526;2022-07-24T13:39:33;100147.28;;;31.68;22.12
27685;BME280;46113;50.130;8.526;2022-07-24T13:42:00;100153.06;;;31.38;22.29
27685;BME280;46113;50.130;8.526;2022-07-24T13:44:26;100139.00;;;31.34;22.88
27685;BME280;46113;50.130;8.526;2022-07-24T13:46:53;100140.22;;;30.76;22.18
27685;BME280;46113;50.130;8.526;2022-07-24T13:49:19;100139.69;;;30.94;22.37
27685;BME280;46113;50.130;8.526;2022-07-24T13:51:46;100137.34;;;30.56;22.52
27685;BME280;46113;50.130;8.526;2022-07-24T13:54:13;100137.47;;;31.18;23.17
27685;BME280;46113;50.130;8.526;2022-07-24T13:56:40;100135.13;;;30.37;22.35
27685;BME280;46113;50.130;8.526;2022-07-24T13:59:07;100132.75;;;30.98;22.29
27685;BME280;46113;50.130;8.526;2022-07-24T14:01:33;100132.50;;;31.42;21.82
27685;BME280;46113;50.130;8.526;2022-07-24T14:04:05;100124.94;;;31.58;21.16
27685;BME280;46113;50.130;8.526;2022-07-24T14:06:54;100114.69;;;31.73;21.07
27685;BME280;46113;50.130;8.526;2022-07-24T14:09:21;100115.97;;;31.98;21.24
27685;BME280;46113;50.130;8.526;2022-07-24T14:11:49;100123.91;;;30.96;21.55
27685;BME280;46113;50.130;8.526;2022-07-24T14:14:15;100117.38;;;30.55;22.49
27685;BME280;46113;50.130;8.526;2022-07-24T14:16:42;100108.41;;;31.03;21.90
27685;BME280;46113;50.130;8.526;2022-07-24T14:19:09;100107.28;;;30.49;22.03
27685;BME280;46113;50.130;8.526;2022-07-24T14:21:35;100106.41;;;31.19;22.62
27685;BME280;46113;50.130;8.526;2022-07-24T14:24:04;100099.72;;;31.55;21.42
27685;BME280;46113;50.130;8.526;2022-07-24T14:26:35;100093.00;;;31.58;21.61
27685;BME280;46113;50.130;8.526;2022-07-24T14:29:02;100100.13;;;31.46;21.12
27685;BME280;46113;50.130;8.526;2022-07-24T14:31:28;100096.13;;;31.28;20.53
27685;BME280;46113;50.130;8.526;2022-07-24T14:33:55;100088.16;;;31.60;21.09
27685;BME280;46113;50.130;8.526;2022-07-24T14:36:21;100082.34;;;31.08;21.54
27685;BME280;46113;50.130;8.526;2022-07-24T14:38:48;100079.13;;;31.46;21.19
27685;BME280;46113;50.130;8.526;2022-07-24T14:41:14;100083.50;;;31.40;21.02
27685;BME280;46113;50.130;8.526;2022-07-24T14:43:41;100077.25;;;32.14;20.85
27685;BME280;46113;50.130;8.526;2022-07-24T14:46:07;100073.78;;;32.53;20.46
27685;BME280;46113;50.130;8.526;2022-07-24T14:48:34;100074.44;;;32.48;19.73
27685;BME280;46113;50.130;8.526;2022-07-24T14:51:01;100076.34;;;31.33;20.21
27685;BME280;46113;50.130;8.526;2022-07-24T14:53:35;100063.97;;;31.43;21.03
27685;BME280;46113;50.130;8.526;2022-07-24T14:56:02;100062.13;;;31.64;21.26
27685;BME280;46113;50.130;8.526;2022-07-24T14:58:29;100058.53;;;31.84;20.67
27685;BME280;46113;50.130;8.526;2022-07-24T15:00:55;100055.00;;;31.70;20.92
27685;BME280;46113;50.130;8.526;2022-07-24T15:03:22;100057.47;;;31.58;21.22
27685;BME280;46113;50.130;8.526;2022-07-24T15:05:48;100050.28;;;31.23;21.49
27685;BME280;46113;50.130;8.526;2022-07-24T15:08:15;100056.22;;;31.61;21.51
27685;BME280;46113;50.130;8.526;2022-07-24T15:10:42;100047.97;;;31.34;20.77
27685;BME280;46113;50.130;8.526;2022-07-24T15:13:09;100052.31;;;30.94;21.29
27685;BME280;46113;50.130;8.526;2022-07-24T15:15:36;100045.16;;;31.00;21.04
27685;BME280;46113;50.130;8.526;2022-07-24T15:18:03;100041.41;;;31.08;20.94
27685;BME280;46113;50.130;8.526;2022-07-24T15:20:30;100045.56;;;30.90;20.91
27685;BME280;46113;50.130;8.526;2022-07-24T15:22:56;100034.56;;;30.70;20.95
27685;BME280;46113;50.130;8.526;2022-07-24T15:25:23;100035.16;;;31.21;20.46
27685;BME280;46113;50.130;8.526;2022-07-24T15:27:49;100031.81;;;31.32;20.84
27685;BME280;46113;50.130;8.526;2022-07-24T15:30:18;100032.22;;;30.60;20.91
27685;BME280;46113;50.130;8.526;2022-07-24T15:32:52;100028.25;;;31.59;22.54
27685;BME280;46113;50.130;8.526;2022-07-24T15:35:20;100023.81;;;31.58;20.99
27685;BME280;46113;50.130;8.526;2022-07-24T15:37:50;100013.53;;;31.93;20.21
27685;BME280;46113;50.130;8.526;2022-07-24T15:40:34;100015.25;;;31.67;20.25
27685;BME280;46113;50.130;8.526;2022-07-24T15:43:01;100010.59;;;31.54;20.79
27685;BME280;46113;50.130;8.526;2022-07-24T15:45:38;100012.47;;;31.54;20.86
27685;BME280;46113;50.130;8.526;2022-07-24T15:48:05;100004.91;;;31.56;20.46
27685;BME280;46113;50.130;8.526;2022-07-24T15:50:32;99998.00;;;31.33;20.10
27685;BME280;46113;50.130;8.526;2022-07-24T15:53:03;100009.41;;;30.74;20.79
27685;BME280;46113;50.130;8.526;2022-07-24T15:55:30;100000.47;;;31.14;20.75
27685;BME280;46113;50.130;8.526;2022-07-24T15:57:56;99988.31;;;31.71;21.69
27685;BME280;46113;50.130;8.526;2022-07-24T16:00:24;99991.25;;;31.83;21.01
27685;BME280;46113;50.130;8.526;2022-07-24T16:02:51;99994.63;;;31.78;20.33
27685;BME280;46113;50.130;8.526;2022-07-24T16:05:25;99993.97;;;31.29;20.47
27685;BME280;46113;50.130;8.526;2022-07-24T16:07:56;99987.81;;;30.86;20.47
27685;BME280;46113;50.130;8.526;2022-07-24T16:10:24;99987.25;;;31.32;20.40
27685;BME280;46113;50.130;8.526;2022-07-24T16:12:51;99986.41;;;31.38;20.78
27685;BME280;46113;50.130;8.526;2022-07-24T16:15:18;99978.63;;;31.62;21.34
27685;BME280;46113;50.130;8.526;2022-07-24T16:17:45;99967.53;;;31.70;20.25
27685;BME280;46113;50.130;8.526;2022-07-24T16:20:13;99972.53;;;31.33;20.43
27685;BME280;46113;50.130;8.526;2022-07-24T16:22:41;99971.47;;;31.07;21.19
27685;BME280;46113;50.130;8.526;2022-07-24T16:25:08;99979.50;;;31.49;20.89
27685;BME280;46113;50.130;8.526;2022-07-24T16:27:35;99971.94;;;31.64;20.78
27685;BME280;46113;50.130;8.526;2022-07-24T16:30:03;99973.41;;;31.40;20.34
27685;BME280;46113;50.130;8.526;2022-07-24T16:32:30;99958.19;;;31.98;21.21
27685;BME280;46113;50.130;8.526;2022-07-24T16:34:56;99958.16;;;32.25;20.31
27685;BME280;46113;50.130;8.526;2022-07-24T16:37:23;99945.41;;;31.78;19.93
27685;BME280;46113;50.130;8.526;2022-07-24T16:39:51;99953.19;;;31.61;20.35
27685;BME280;46113;50.130;8.526;2022-07-24T16:42:17;99944.69;;;32.10;20.06
27685;BME280;46113;50.130;8.526;2022-07-24T16:44:45;99942.72;;;31.65;19.53
27685;BME280;46113;50.130;8.526;2022-07-24T16:47:12;99940.56;;;31.60;19.86
27685;BME280;46113;50.130;8.526;2022-07-24T16:49:46;99944.81;;;31.42;19.71
27685;BME280;46113;50.130;8.526;2022-07-24T16:52:13;99936.88;;;32.20;19.69
27685;BME280;46113;50.130;8.526;2022-07-24T16:54:40;99940.06;;;32.11;19.61
27685;BME280;46113;50.130;8.526;2022-07-24T16:57:07;99938.03;;;31.86;19.73
27685;BME280;46113;50.130;8.526;2022-07-24T16:59:33;99932.09;;;32.02;20.29
27685;BME280;46113;50.130;8.526;2022-07-24T17:02:00;99938.13;;;32.31;19.77
27685;BME280;46113;50.130;8.526;2022-07-24T17:04:27;99934.09;;;32.34;19.58
27685;BME280;46113;50.130;8.526;2022-07-24T17:06:54;99921.50;;;32.72;20.27
27685;BME280;46113;50.130;8.526;2022-07-24T17:09:20;99930.28;;;31.55;20.53
27685;BME280;46113;50.130;8.526;2022-07-24T17:11:47;99930.50;;;31.07;21.20
27685;BME280;46113;50.130;8.526;2022-07-24T17:14:18;99931.34;;;31.00;21.46
27685;BME280;46113;50.130;8.526;2022-07-24T17:16:45;99926.53;;;31.63;21.44
27685;BME280;46113;50.130;8.526;2022-07-24T17:19:13;99934.25;;;31.87;22.06
27685;BME280;46113;50.130;8.526;2022-07-24T17:21:40;99930.34;;;32.28;20.59
27685;BME280;46113;50.130;8.526;2022-07-24T17:24:07;99924.88;;;32.21;21.33
27685;BME280;46113;50.130;8.526;2022-07-24T17:27:01;99918.94;;;31.04;21.37
27685;BME280;46113;50.130;8.526;2022-07-24T17:29:28;99923.34;;;31.66;21.85
27685;BME280;46113;50.130;8.526;2022-07-24T17:31:54;99926.91;;;30.93;21.42
27685;BME280;46113;50.130;8.526;2022-07-24T17:34:21;99925.84;;;30.87;21.38
27685;BME280;46113;50.130;8.526;2022-07-24T17:36:48;99919.00;;;30.35;21.92
27685;BME280;46113;50.130;8.526;2022-07-24T17:39:15;99910.94;;;30.14;23.05
27685;BME280;46113;50.130;8.526;2022-07-24T17:41:42;99920.59;;;30.16;23.04
27685;BME280;46113;50.130;8.526;2022-07-24T17:44:08;99918.94;;;30.22;22.35
27685;BME280;46113;50.130;8.526;2022-07-24T17:46:35;99921.47;;;30.23;22.90